sensor_id;sensor_type;location;lat;lon;timestamp;P1;durP1;ratioP1;P2;durP2;ratioP2
63398;SDS011;49533;-34.520;150.798;2022-12-26T00:01:27;27.08;;;20.48;;
63398;SDS011;49533;-34.520;150.798;2022-12-26T00:03:55;30.63;;;21.27;;
63398;SDS011;49533;-34.520;150.798;2022-12-26T00:06:24;28.65;;;23.38;;
63398;SDS011;49533;-34.520;150.798;2022-12-26T00:08:53;31.05;;;23.40;;
63398;SDS011;49533;-34.520;150.798;2022-12-26T00:11:21;31.90;;;23.50;;
63398;SDS011;49533;-34.520;150.798;2022-12-26T00:13:53;30.45;;;23.15;;
63398;SDS011;49533;-34.520;150.798;2022-12-26T00:16:21;29.73;;;22.70;;
63398;SDS011;49533;-34.520;150.798;2022-12-26T00:18:49;29.48;;;22.17;;
63398;SDS011;49533;-34.520;150.798;2022-12-26T00:21:16;28.70;;;22.73;;
63398;SDS011;49533;-34.520;150.798;2022-12-26T00:23:44;29.00;;;21.95;;
63398;SDS011;49533;-34.520;150.798;2022-12-26T00:26:13;34.50;;;25.52;;
63398;SDS011;49533;-34.520;150.798;2022-12-26T00:28:42;32.42;;;24.40;;
63398;SDS011;49533;-34.520;150.798;2022-12-26T00:31:11;36.30;;;25.92;;
63398;SDS011;49533;-34.520;150.798;2022-12-26T00:33:40;33.05;;;24.10;;
63398;SDS011;49533;-34.520;150.798;2022-12-26T00:36:09;35.17;;;24.88;;
63398;SDS011;49533;-34.520;150.798;2022-12-26T00:38:39;30.40;;;23.98;;
63398;SDS011;49533;-34.520;150.798;2022-12-26T00:41:09;34.20;;;25.23;;
63398;SDS011;49533;-34.520;150.798;2022-12-26T00:43:37;38.03;;;26.92;;
63398;SDS011;49533;-34.520;150.798;2022-12-26T00:46:04;38.80;;;26.92;;
63398;SDS011;49533;-34.520;150.798;2022-12-26T00:48:32;43.15;;;27.75;;
63398;SDS011;49533;-34.520;150.798;2022-12-26T00:50:59;32.42;;;24.98;;
63398;SDS011;49533;-34.520;150.798;2022-12-26T00:53:27;36.75;;;27.13;;
63398;SDS011;49533;-34.520;150.798;2022-12-26T00:55:54;34.35;;;25.70;;
63398;SDS011;49533;-34.520;150.798;2022-12-26T00:58:21;36.10;;;26.42;;
63398;SDS011;49533;-34.520;150.798;2022-12-26T01:00:50;35.30;;;24.05;;
63398;SDS011;49533;-34.520;150.798;2022-12-26T01:03:18;35.53;;;23.95;;
63398;SDS011;49533;-34.520;150.798;2022-12-26T01:05:46;30.83;;;22.95;;
63398;SDS011;49533;-34.520;150.798;2022-12-26T01:08:15;30.50;;;22.50;;
63398;SDS011;49533;-34.520;150.798;2022-12-26T01:10:44;32.05;;;23.48;;
63398;SDS011;49533;-34.520;150.798;2022-12-26T01:13:13;34.78;;;23.90;;
63398;SDS011;49533;-34.520;150.798;2022-12-26T01:15:45;33.97;;;24.17;;
63398;SDS011;49533;-34.520;150.798;2022-12-26T01:18:16;29.67;;;21.52;;
63398;SDS011;49533;-34.520;150.798;2022-12-26T01:20:44;28.52;;;22.35;;
63398;SDS011;49533;-34.520;150.798;2022-12-26T01:23:11;30.38;;;22.35;;
63398;SDS011;49533;-34.520;150.798;2022-12-26T01:25:38;32.33;;;22.48;;
63398;SDS011;49533;-34.520;150.798;2022-12-26T01:28:05;32.28;;;22.73;;
63398;SDS011;49533;-34.520;150.798;2022-12-26T01:30:32;38.53;;;26.83;;
63398;SDS011;49533;-34.520;150.798;2022-12-26T01:32:59;38.33;;;24.40;;
63398;SDS011;49533;-34.520;150.798;2022-12-26T01:35:27;29.55;;;23.55;;
63398;SDS011;49533;-34.520;150.798;2022-12-26T01:37:54;28.95;;;22.35;;
63398;SDS011;49533;-34.520;150.798;2022-12-26T01:40:21;29.52;;;23.38;;
63398;SDS011;49533;-34.520;150.798;2022-12-26T01:42:48;34.42;;;23.20;;
63398;SDS011;49533;-34.520;150.798;2022-12-26T01:45:29;31.55;;;21.58;;
63398;SDS011;49533;-34.520;150.798;2022-12-26T01:48:11;25.08;;;20.27;;
63398;SDS011;49533;-34.520;150.798;2022-12-26T01:50:48;21.77;;;17.00;;
63398;SDS011;49533;-34.520;150.798;2022-12-26T01:53:27;22.58;;;16.05;;
63398;SDS011;49533;-34.520;150.798;2022-12-26T01:56:07;20.10;;;12.25;;
63398;SDS011;49533;-34.520;150.798;2022-12-26T01:58:41;18.52;;;12.57;;
63398;SDS011;49533;-34.520;150.798;2022-12-26T02:01:17;16.00;;;9.55;;
63398;SDS011;49533;-34.520;150.798;2022-12-26T02:03:45;11.88;;;7.55;;
63398;SDS011;49533;-34.520;150.798;2022-12-26T02:06:25;13.40;;;7.93;;
63398;SDS011;49533;-34.520;150.798;2022-12-26T02:08:52;8.45;;;6.80;;
63398;SDS011;49533;-34.520;150.798;2022-12-26T02:11:24;11.35;;;6.75;;
63398;SDS011;49533;-34.520;150.798;2022-12-26T02:13:57;9.85;;;6.50;;
63398;SDS011;49533;-34.520;150.798;2022-12-26T02:16:25;10.48;;;6.07;;
63398;SDS011;49533;-34.520;150.798;2022-12-26T02:18:53;9.73;;;5.35;;
63398;SDS011;49533;-34.520;150.798;2022-12-26T02:21:29;9.07;;;5.38;;
63398;SDS011;49533;-34.520;150.798;2022-12-26T02:27:31;10.55;;;4.93;;
63398;SDS011;49533;-34.520;150.798;2022-12-26T02:30:22;9.90;;;3.78;;
63398;SDS011;49533;-34.520;150.798;2022-12-26T02:33:01;8.25;;;3.63;;
63398;SDS011;49533;-34.520;150.798;2022-12-26T02:35:52;9.02;;;3.85;;
63398;SDS011;49533;-34.520;150.798;2022-12-26T02:38:34;6.88;;;3.42;;
63398;SDS011;49533;-34.520;150.798;2022-12-26T02:41:31;5.50;;;3.10;;
63398;SDS011;49533;-34.520;150.798;2022-12-26T02:44:19;6.22;;;3.17;;
63398;SDS011;49533;-34.520;150.798;2022-12-26T02:47:10;6.90;;;3.67;;
63398;SDS011;49533;-34.520;150.798;2022-12-26T02:49:54;4.07;;;3.20;;
63398;SDS011;49533;-34.520;150.798;2022-12-26T02:52:45;8.88;;;3.60;;
63398;SDS011;49533;-34.520;150.798;2022-12-26T02:55:39;5.20;;;2.78;;
63398;SDS011;49533;-34.520;150.798;2022-12-26T02:58:22;7.03;;;3.13;;
63398;SDS011;49533;-34.520;150.798;2022-12-26T03:04:11;9.15;;;3.00;;
63398;SDS011;49533;-34.520;150.798;2022-12-26T03:06:53;5.03;;;2.47;;
63398;SDS011;49533;-34.520;150.798;2022-12-26T03:09:38;5.13;;;2.65;;
63398;SDS011;49533;-34.520;150.798;2022-12-26T03:12:28;7.57;;;2.40;;
63398;SDS011;49533;-34.520;150.798;2022-12-26T03:15:18;4.85;;;2.78;;
63398;SDS011;49533;-34.520;150.798;2022-12-26T03:17:49;8.60;;;3.33;;
63398;SDS011;49533;-34.520;150.798;2022-12-26T03:20:23;6.87;;;2.43;;
63398;SDS011;49533;-34.520;150.798;2022-12-26T03:22:56;5.07;;;1.73;;
63398;SDS011;49533;-34.520;150.798;2022-12-26T03:25:36;5.30;;;2.30;;
63398;SDS011;49533;-34.520;150.798;2022-12-26T03:28:20;7.43;;;2.38;;
63398;SDS011;49533;-34.520;150.798;2022-12-26T03:30:48;9.57;;;2.60;;
63398;SDS011;49533;-34.520;150.798;2022-12-26T03:33:17;6.10;;;2.35;;
63398;SDS011;49533;-34.520;150.798;2022-12-26T03:36:20;7.03;;;3.13;;
63398;SDS011;49533;-34.520;150.798;2022-12-26T03:39:12;7.05;;;2.40;;
63398;SDS011;49533;-34.520;150.798;2022-12-26T03:42:07;8.23;;;3.28;;
63398;SDS011;49533;-34.520;150.798;2022-12-26T03:44:54;7.10;;;2.97;;
63398;SDS011;49533;-34.520;150.798;2022-12-26T03:47:46;10.52;;;3.38;;
63398;SDS011;49533;-34.520;150.798;2022-12-26T03:50:36;5.47;;;2.53;;
63398;SDS011;49533;-34.520;150.798;2022-12-26T03:53:21;6.07;;;3.30;;
63398;SDS011;49533;-34.520;150.798;2022-12-26T03:56:17;10.32;;;3.65;;
63398;SDS011;49533;-34.520;150.798;2022-12-26T03:59:11;9.50;;;4.15;;
63398;SDS011;49533;-34.520;150.798;2022-12-26T04:01:54;6.00;;;3.17;;
63398;SDS011;49533;-34.520;150.798;2022-12-26T04:04:39;6.20;;;3.05;;
63398;SDS011;49533;-34.520;150.798;2022-12-26T04:10:10;7.30;;;2.35;;
63398;SDS011;49533;-34.520;150.798;2022-12-26T04:12:54;6.55;;;2.95;;
63398;SDS011;49533;-34.520;150.798;2022-12-26T04:15:40;6.20;;;2.20;;
63398;SDS011;49533;-34.520;150.798;2022-12-26T04:18:35;4.70;;;1.98;;
63398;SDS011;49533;-34.520;150.798;2022-12-26T04:21:24;4.70;;;2.22;;
63398;SDS011;49533;-34.520;150.798;2022-12-26T04:24:14;6.20;;;1.83;;
63398;SDS011;49533;-34.520;150.798;2022-12-26T04:26:57;5.85;;;2.28;;
63398;SDS011;49533;-34.520;150.798;2022-12-26T04:29:40;7.93;;;2.13;;
63398;SDS011;49533;-34.520;150.798;2022-12-26T04:32:33;6.50;;;2.15;;
63398;SDS011;49533;-34.520;150.798;2022-12-26T04:35:18;6.90;;;1.77;;
63398;SDS011;49533;-34.520;150.798;2022-12-26T04:38:02;5.88;;;1.88;;
63398;SDS011;49533;-34.520;150.798;2022-12-26T04:40:44;4.63;;;1.80;;
63398;SDS011;49533;-34.520;150.798;2022-12-26T04:43:26;8.93;;;2.65;;
63398;SDS011;49533;-34.520;150.798;2022-12-26T04:46:06;7.35;;;1.60;;
63398;SDS011;49533;-34.520;150.798;2022-12-26T04:48:39;7.82;;;1.77;;
63398;SDS011;49533;-34.520;150.798;2022-12-26T04:51:22;6.43;;;2.30;;
63398;SDS011;49533;-34.520;150.798;2022-12-26T04:53:49;11.18;;;2.13;;
63398;SDS011;49533;-34.520;150.798;2022-12-26T04:56:17;9.25;;;2.10;;
63398;SDS011;49533;-34.520;150.798;2022-12-26T04:58:44;10.27;;;1.67;;
63398;SDS011;49533;-34.520;150.798;2022-12-26T05:01:11;8.55;;;2.20;;
63398;SDS011;49533;-34.520;150.798;2022-12-26T05:03:49;6.60;;;1.75;;
63398;SDS011;49533;-34.520;150.798;2022-12-26T05:06:28;7.88;;;2.40;;
63398;SDS011;49533;-34.520;150.798;2022-12-26T05:09:08;6.63;;;2.20;;
63398;SDS011;49533;-34.520;150.798;2022-12-26T05:11:48;10.88;;;2.03;;
63398;SDS011;49533;-34.520;150.798;2022-12-26T05:14:16;5.35;;;1.63;;
63398;SDS011;49533;-34.520;150.798;2022-12-26T05:16:43;4.82;;;1.67;;
63398;SDS011;49533;-34.520;150.798;2022-12-26T05:19:21;6.55;;;2.35;;
63398;SDS011;49533;-34.520;150.798;2022-12-26T05:22:00;7.97;;;2.35;;
63398;SDS011;49533;-34.520;150.798;2022-12-26T05:24:41;8.52;;;2.45;;
63398;SDS011;49533;-34.520;150.798;2022-12-26T05:27:22;10.07;;;2.28;;
63398;SDS011;49533;-34.520;150.798;2022-12-26T05:30:03;5.05;;;1.73;;
63398;SDS011;49533;-34.520;150.798;2022-12-26T05:32:31;7.32;;;2.22;;
63398;SDS011;49533;-34.520;150.798;2022-12-26T05:35:10;9.68;;;2.15;;
63398;SDS011;49533;-34.520;150.798;2022-12-26T05:37:37;7.05;;;1.58;;
63398;SDS011;49533;-34.520;150.798;2022-12-26T05:40:04;5.63;;;1.85;;
63398;SDS011;49533;-34.520;150.798;2022-12-26T05:42:32;9.23;;;2.10;;
63398;SDS011;49533;-34.520;150.798;2022-12-26T05:44:59;6.38;;;2.22;;
63398;SDS011;49533;-34.520;150.798;2022-12-26T05:47:26;9.32;;;2.00;;
63398;SDS011;49533;-34.520;150.798;2022-12-26T05:49:53;8.85;;;2.17;;
63398;SDS011;49533;-34.520;150.798;2022-12-26T05:52:20;6.63;;;1.75;;
63398;SDS011;49533;-34.520;150.798;2022-12-26T05:54:47;9.63;;;1.90;;
63398;SDS011;49533;-34.520;150.798;2022-12-26T05:57:15;6.80;;;1.83;;
63398;SDS011;49533;-34.520;150.798;2022-12-26T05:59:42;9.00;;;3.10;;
63398;SDS011;49533;-34.520;150.798;2022-12-26T06:02:09;10.38;;;1.77;;
63398;SDS011;49533;-34.520;150.798;2022-12-26T06:04:36;11.82;;;2.30;;
63398;SDS011;49533;-34.520;150.798;2022-12-26T06:07:03;7.07;;;1.98;;
63398;SDS011;49533;-34.520;150.798;2022-12-26T06:09:30;5.90;;;1.92;;
63398;SDS011;49533;-34.520;150.798;2022-12-26T06:11:57;9.40;;;2.53;;
63398;SDS011;49533;-34.520;150.798;2022-12-26T06:14:24;10.10;;;2.47;;
63398;SDS011;49533;-34.520;150.798;2022-12-26T06:16:51;9.07;;;2.05;;
63398;SDS011;49533;-34.520;150.798;2022-12-26T06:19:18;7.93;;;1.73;;
63398;SDS011;49533;-34.520;150.798;2022-12-26T06:21:46;8.40;;;1.80;;
63398;SDS011;49533;-34.520;150.798;2022-12-26T06:24:13;7.07;;;1.88;;
63398;SDS011;49533;-34.520;150.798;2022-12-26T06:26:40;15.10;;;3.30;;
63398;SDS011;49533;-34.520;150.798;2022-12-26T06:29:08;7.57;;;2.00;;
63398;SDS011;49533;-34.520;150.798;2022-12-26T06:31:35;10.40;;;2.50;;
63398;SDS011;49533;-34.520;150.798;2022-12-26T06:34:02;9.07;;;2.28;;
63398;SDS011;49533;-34.520;150.798;2022-12-26T06:36:29;8.50;;;2.28;;
63398;SDS011;49533;-34.520;150.798;2022-12-26T06:38:57;9.85;;;1.90;;
63398;SDS011;49533;-34.520;150.798;2022-12-26T06:41:25;16.83;;;2.63;;
63398;SDS011;49533;-34.520;150.798;2022-12-26T06:43:52;9.75;;;2.08;;
63398;SDS011;49533;-34.520;150.798;2022-12-26T06:46:21;7.78;;;2.15;;
63398;SDS011;49533;-34.520;150.798;2022-12-26T06:48:49;12.82;;;3.03;;
63398;SDS011;49533;-34.520;150.798;2022-12-26T06:51:18;8.15;;;2.30;;
63398;SDS011;49533;-34.520;150.798;2022-12-26T06:53:48;12.07;;;2.30;;
63398;SDS011;49533;-34.520;150.798;2022-12-26T06:56:17;8.10;;;2.42;;
63398;SDS011;49533;-34.520;150.798;2022-12-26T06:58:46;6.80;;;2.10;;
63398;SDS011;49533;-34.520;150.798;2022-12-26T07:01:17;7.57;;;2.17;;
63398;SDS011;49533;-34.520;150.798;2022-12-26T07:03:44;11.73;;;2.00;;
63398;SDS011;49533;-34.520;150.798;2022-12-26T07:06:16;8.25;;;1.98;;
63398;SDS011;49533;-34.520;150.798;2022-12-26T07:08:48;11.18;;;2.55;;
63398;SDS011;49533;-34.520;150.798;2022-12-26T07:11:19;9.18;;;2.38;;
63398;SDS011;49533;-34.520;150.798;2022-12-26T07:13:48;14.00;;;3.15;;
63398;SDS011;49533;-34.520;150.798;2022-12-26T07:16:15;9.88;;;2.15;;
63398;SDS011;49533;-34.520;150.798;2022-12-26T07:18:42;8.63;;;2.03;;
63398;SDS011;49533;-34.520;150.798;2022-12-26T07:21:10;8.52;;;2.50;;
63398;SDS011;49533;-34.520;150.798;2022-12-26T07:23:38;8.68;;;2.55;;
63398;SDS011;49533;-34.520;150.798;2022-12-26T07:26:06;9.27;;;2.17;;
63398;SDS011;49533;-34.520;150.798;2022-12-26T07:28:34;6.35;;;1.75;;
63398;SDS011;49533;-34.520;150.798;2022-12-26T07:31:01;8.43;;;2.25;;
63398;SDS011;49533;-34.520;150.798;2022-12-26T07:33:29;7.50;;;2.00;;
63398;SDS011;49533;-34.520;150.798;2022-12-26T07:35:58;7.00;;;2.45;;
63398;SDS011;49533;-34.520;150.798;2022-12-26T07:38:27;8.40;;;2.10;;
63398;SDS011;49533;-34.520;150.798;2022-12-26T07:40:54;9.48;;;2.30;;
63398;SDS011;49533;-34.520;150.798;2022-12-26T07:43:22;5.75;;;1.80;;
63398;SDS011;49533;-34.520;150.798;2022-12-26T07:45:50;7.80;;;2.35;;
63398;SDS011;49533;-34.520;150.798;2022-12-26T07:48:18;7.80;;;2.28;;
63398;SDS011;49533;-34.520;150.798;2022-12-26T07:50:45;4.60;;;2.22;;
63398;SDS011;49533;-34.520;150.798;2022-12-26T07:53:13;8.88;;;1.95;;
63398;SDS011;49533;-34.520;150.798;2022-12-26T07:55:41;10.05;;;1.95;;
63398;SDS011;49533;-34.520;150.798;2022-12-26T07:58:08;6.82;;;1.95;;
63398;SDS011;49533;-34.520;150.798;2022-12-26T08:00:35;6.72;;;2.05;;
63398;SDS011;49533;-34.520;150.798;2022-12-26T08:03:02;3.80;;;1.48;;
63398;SDS011;49533;-34.520;150.798;2022-12-26T08:05:29;4.97;;;1.52;;
63398;SDS011;49533;-34.520;150.798;2022-12-26T08:07:56;6.82;;;2.50;;
63398;SDS011;49533;-34.520;150.798;2022-12-26T08:10:23;6.47;;;1.58;;
63398;SDS011;49533;-34.520;150.798;2022-12-26T08:12:51;5.85;;;1.63;;
63398;SDS011;49533;-34.520;150.798;2022-12-26T08:15:18;4.43;;;1.50;;
63398;SDS011;49533;-34.520;150.798;2022-12-26T08:17:45;3.97;;;1.70;;
63398;SDS011;49533;-34.520;150.798;2022-12-26T08:20:12;7.18;;;2.10;;
63398;SDS011;49533;-34.520;150.798;2022-12-26T08:22:39;5.50;;;1.88;;
63398;SDS011;49533;-34.520;150.798;2022-12-26T08:25:06;3.83;;;1.83;;
63398;SDS011;49533;-34.520;150.798;2022-12-26T08:27:34;7.38;;;2.17;;
63398;SDS011;49533;-34.520;150.798;2022-12-26T08:30:02;3.35;;;1.52;;
63398;SDS011;49533;-34.520;150.798;2022-12-26T08:32:29;5.05;;;1.50;;
63398;SDS011;49533;-34.520;150.798;2022-12-26T08:34:56;6.28;;;2.33;;
63398;SDS011;49533;-34.520;150.798;2022-12-26T08:37:23;5.45;;;2.25;;
63398;SDS011;49533;-34.520;150.798;2022-12-26T08:39:51;5.88;;;1.90;;
63398;SDS011;49533;-34.520;150.798;2022-12-26T08:42:18;4.22;;;1.70;;
63398;SDS011;49533;-34.520;150.798;2022-12-26T08:44:46;6.80;;;1.90;;
63398;SDS011;49533;-34.520;150.798;2022-12-26T08:47:14;6.80;;;1.63;;
63398;SDS011;49533;-34.520;150.798;2022-12-26T08:49:42;3.58;;;1.92;;
63398;SDS011;49533;-34.520;150.798;2022-12-26T08:52:09;7.43;;;2.00;;
63398;SDS011;49533;-34.520;150.798;2022-12-26T08:54:36;6.75;;;2.15;;
63398;SDS011;49533;-34.520;150.798;2022-12-26T08:57:03;5.93;;;1.52;;
63398;SDS011;49533;-34.520;150.798;2022-12-26T08:59:30;10.68;;;2.58;;
63398;SDS011;49533;-34.520;150.798;2022-12-26T09:01:57;9.77;;;2.53;;
63398;SDS011;49533;-34.520;150.798;2022-12-26T09:04:24;4.90;;;2.28;;
63398;SDS011;49533;-34.520;150.798;2022-12-26T09:06:51;9.48;;;2.95;;
63398;SDS011;49533;-34.520;150.798;2022-12-26T09:09:18;6.88;;;2.22;;
63398;SDS011;49533;-34.520;150.798;2022-12-26T09:11:45;5.53;;;1.70;;
63398;SDS011;49533;-34.520;150.798;2022-12-26T09:14:12;4.57;;;2.00;;
63398;SDS011;49533;-34.520;150.798;2022-12-26T09:16:40;5.70;;;1.67;;
63398;SDS011;49533;-34.520;150.798;2022-12-26T09:19:11;6.72;;;2.20;;
63398;SDS011;49533;-34.520;150.798;2022-12-26T09:21:42;4.55;;;2.22;;
63398;SDS011;49533;-34.520;150.798;2022-12-26T09:24:11;8.10;;;2.05;;
63398;SDS011;49533;-34.520;150.798;2022-12-26T09:26:40;7.85;;;2.20;;
63398;SDS011;49533;-34.520;150.798;2022-12-26T09:29:08;5.35;;;1.48;;
63398;SDS011;49533;-34.520;150.798;2022-12-26T09:31:37;4.38;;;2.03;;
63398;SDS011;49533;-34.520;150.798;2022-12-26T09:34:05;8.75;;;2.28;;
63398;SDS011;49533;-34.520;150.798;2022-12-26T09:36:34;6.78;;;1.88;;
63398;SDS011;49533;-34.520;150.798;2022-12-26T09:39:03;3.38;;;1.70;;
63398;SDS011;49533;-34.520;150.798;2022-12-26T09:41:35;5.18;;;1.73;;
63398;SDS011;49533;-34.520;150.798;2022-12-26T09:44:23;7.93;;;1.90;;
63398;SDS011;49533;-34.520;150.798;2022-12-26T09:47:16;6.65;;;1.88;;
63398;SDS011;49533;-34.520;150.798;2022-12-26T09:49:58;7.97;;;2.22;;
63398;SDS011;49533;-34.520;150.798;2022-12-26T09:58:34;6.60;;;2.00;;
63398;SDS011;49533;-34.520;150.798;2022-12-26T10:01:07;5.15;;;2.55;;
63398;SDS011;49533;-34.520;150.798;2022-12-26T10:03:40;9.00;;;2.85;;
63398;SDS011;49533;-34.520;150.798;2022-12-26T10:06:14;4.82;;;2.22;;
63398;SDS011;49533;-34.520;150.798;2022-12-26T10:08:57;4.57;;;1.88;;
63398;SDS011;49533;-34.520;150.798;2022-12-26T10:11:55;9.07;;;2.20;;
63398;SDS011;49533;-34.520;150.798;2022-12-26T10:14:51;6.05;;;2.45;;
63398;SDS011;49533;-34.520;150.798;2022-12-26T10:17:28;5.22;;;2.47;;
63398;SDS011;49533;-34.520;150.798;2022-12-26T10:20:07;5.03;;;2.17;;
63398;SDS011;49533;-34.520;150.798;2022-12-26T10:23:17;7.32;;;2.30;;
63398;SDS011;49533;-34.520;150.798;2022-12-26T10:25:46;6.00;;;2.40;;
63398;SDS011;49533;-34.520;150.798;2022-12-26T10:28:37;4.72;;;2.28;;
63398;SDS011;49533;-34.520;150.798;2022-12-26T10:31:14;6.20;;;2.45;;
63398;SDS011;49533;-34.520;150.798;2022-12-26T10:33:50;5.60;;;2.80;;
63398;SDS011;49533;-34.520;150.798;2022-12-26T10:36:28;6.22;;;2.90;;
63398;SDS011;49533;-34.520;150.798;2022-12-26T10:38:59;6.57;;;2.70;;
63398;SDS011;49533;-34.520;150.798;2022-12-26T10:41:32;9.25;;;3.08;;
63398;SDS011;49533;-34.520;150.798;2022-12-26T10:44:09;8.00;;;2.75;;
63398;SDS011;49533;-34.520;150.798;2022-12-26T10:46:40;5.63;;;2.60;;
63398;SDS011;49533;-34.520;150.798;2022-12-26T10:49:23;5.68;;;2.35;;
63398;SDS011;49533;-34.520;150.798;2022-12-26T10:51:51;5.78;;;2.38;;
63398;SDS011;49533;-34.520;150.798;2022-12-26T10:54:20;7.32;;;3.45;;
63398;SDS011;49533;-34.520;150.798;2022-12-26T10:56:49;8.85;;;3.58;;
63398;SDS011;49533;-34.520;150.798;2022-12-26T10:59:18;9.00;;;3.13;;
63398;SDS011;49533;-34.520;150.798;2022-12-26T11:01:47;9.43;;;3.00;;
63398;SDS011;49533;-34.520;150.798;2022-12-26T11:04:18;7.72;;;3.03;;
63398;SDS011;49533;-34.520;150.798;2022-12-26T11:06:49;5.90;;;2.50;;
63398;SDS011;49533;-34.520;150.798;2022-12-26T11:09:24;7.88;;;2.65;;
63398;SDS011;49533;-34.520;150.798;2022-12-26T11:12:05;5.10;;;2.65;;
63398;SDS011;49533;-34.520;150.798;2022-12-26T11:14:44;6.75;;;2.60;;
63398;SDS011;49533;-34.520;150.798;2022-12-26T11:17:22;6.50;;;2.80;;
63398;SDS011;49533;-34.520;150.798;2022-12-26T11:22:36;4.45;;;2.53;;
63398;SDS011;49533;-34.520;150.798;2022-12-26T11:25:11;12.10;;;3.70;;
63398;SDS011;49533;-34.520;150.798;2022-12-26T11:27:44;6.40;;;2.83;;
63398;SDS011;49533;-34.520;150.798;2022-12-26T11:30:15;7.53;;;3.17;;
63398;SDS011;49533;-34.520;150.798;2022-12-26T11:32:46;8.43;;;3.60;;
63398;SDS011;49533;-34.520;150.798;2022-12-26T11:35:19;5.32;;;2.58;;
63398;SDS011;49533;-34.520;150.798;2022-12-26T11:37:50;6.40;;;2.78;;
63398;SDS011;49533;-34.520;150.798;2022-12-26T11:40:22;8.35;;;3.10;;
63398;SDS011;49533;-34.520;150.798;2022-12-26T11:42:55;7.05;;;2.65;;
63398;SDS011;49533;-34.520;150.798;2022-12-26T11:45:25;4.45;;;2.72;;
63398;SDS011;49533;-34.520;150.798;2022-12-26T11:47:55;8.20;;;3.50;;
63398;SDS011;49533;-34.520;150.798;2022-12-26T11:50:26;4.85;;;2.80;;
63398;SDS011;49533;-34.520;150.798;2022-12-26T11:55:41;7.35;;;2.38;;
63398;SDS011;49533;-34.520;150.798;2022-12-26T11:58:20;5.55;;;2.45;;
63398;SDS011;49533;-34.520;150.798;2022-12-26T12:03:43;7.18;;;2.78;;
63398;SDS011;49533;-34.520;150.798;2022-12-26T12:09:11;7.07;;;2.67;;
63398;SDS011;49533;-34.520;150.798;2022-12-26T12:11:54;5.18;;;2.95;;
63398;SDS011;49533;-34.520;150.798;2022-12-26T12:14:44;8.52;;;3.45;;
63398;SDS011;49533;-34.520;150.798;2022-12-26T12:17:25;7.25;;;3.00;;
63398;SDS011;49533;-34.520;150.798;2022-12-26T12:20:09;7.43;;;3.05;;
63398;SDS011;49533;-34.520;150.798;2022-12-26T12:22:56;6.43;;;2.50;;
63398;SDS011;49533;-34.520;150.798;2022-12-26T12:28:30;5.45;;;2.95;;
63398;SDS011;49533;-34.520;150.798;2022-12-26T12:34:18;5.80;;;3.00;;
63398;SDS011;49533;-34.520;150.798;2022-12-26T12:37:02;7.50;;;2.90;;
63398;SDS011;49533;-34.520;150.798;2022-12-26T12:39:48;4.97;;;2.45;;
63398;SDS011;49533;-34.520;150.798;2022-12-26T12:42:42;7.30;;;2.85;;
63398;SDS011;49533;-34.520;150.798;2022-12-26T12:45:37;5.32;;;2.67;;
63398;SDS011;49533;-34.520;150.798;2022-12-26T12:48:18;6.00;;;2.60;;
63398;SDS011;49533;-34.520;150.798;2022-12-26T12:51:00;7.57;;;3.10;;
63398;SDS011;49533;-34.520;150.798;2022-12-26T12:53:49;5.28;;;2.70;;
63398;SDS011;49533;-34.520;150.798;2022-12-26T12:56:44;6.60;;;2.85;;
63398;SDS011;49533;-34.520;150.798;2022-12-26T12:59:41;7.40;;;3.13;;
63398;SDS011;49533;-34.520;150.798;2022-12-26T13:02:32;5.28;;;2.63;;
63398;SDS011;49533;-34.520;150.798;2022-12-26T13:05:23;6.40;;;2.60;;
63398;SDS011;49533;-34.520;150.798;2022-12-26T13:08:21;5.45;;;2.50;;
63398;SDS011;49533;-34.520;150.798;2022-12-26T13:10:55;7.45;;;2.90;;
63398;SDS011;49533;-34.520;150.798;2022-12-26T13:13:32;8.30;;;2.80;;
63398;SDS011;49533;-34.520;150.798;2022-12-26T13:16:11;4.65;;;2.40;;
63398;SDS011;49533;-34.520;150.798;2022-12-26T13:18:47;5.47;;;2.30;;
63398;SDS011;49533;-34.520;150.798;2022-12-26T13:21:23;5.28;;;2.25;;
63398;SDS011;49533;-34.520;150.798;2022-12-26T13:23:56;5.82;;;2.78;;
63398;SDS011;49533;-34.520;150.798;2022-12-26T13:26:44;6.03;;;2.80;;
63398;SDS011;49533;-34.520;150.798;2022-12-26T13:29:18;5.00;;;2.65;;
63398;SDS011;49533;-34.520;150.798;2022-12-26T13:31:57;6.68;;;2.58;;
63398;SDS011;49533;-34.520;150.798;2022-12-26T13:34:25;6.35;;;2.60;;
63398;SDS011;49533;-34.520;150.798;2022-12-26T13:36:54;7.30;;;3.17;;
63398;SDS011;49533;-34.520;150.798;2022-12-26T13:42:15;5.30;;;2.55;;
63398;SDS011;49533;-34.520;150.798;2022-12-26T13:47:57;6.47;;;2.63;;
63398;SDS011;49533;-34.520;150.798;2022-12-26T13:55:56;6.30;;;2.47;;
63398;SDS011;49533;-34.520;150.798;2022-12-26T13:58:36;9.18;;;2.88;;
63398;SDS011;49533;-34.520;150.798;2022-12-26T14:01:24;6.10;;;2.63;;
63398;SDS011;49533;-34.520;150.798;2022-12-26T14:10:14;6.20;;;2.65;;
63398;SDS011;49533;-34.520;150.798;2022-12-26T14:12:58;7.25;;;3.00;;
63398;SDS011;49533;-34.520;150.798;2022-12-26T14:15:47;6.78;;;2.45;;
63398;SDS011;49533;-34.520;150.798;2022-12-26T14:18:37;7.82;;;2.90;;
63398;SDS011;49533;-34.520;150.798;2022-12-26T14:21:25;6.07;;;2.15;;
63398;SDS011;49533;-34.520;150.798;2022-12-26T14:24:06;4.97;;;2.53;;
63398;SDS011;49533;-34.520;150.798;2022-12-26T14:26:51;4.85;;;2.53;;
63398;SDS011;49533;-34.520;150.798;2022-12-26T14:29:47;5.75;;;2.42;;
63398;SDS011;49533;-34.520;150.798;2022-12-26T14:32:39;5.35;;;2.65;;
63398;SDS011;49533;-34.520;150.798;2022-12-26T14:35:28;5.53;;;2.50;;
63398;SDS011;49533;-34.520;150.798;2022-12-26T14:41:03;5.00;;;2.35;;
63398;SDS011;49533;-34.520;150.798;2022-12-26T14:43:37;5.50;;;2.60;;
63398;SDS011;49533;-34.520;150.798;2022-12-26T14:47:08;5.35;;;2.72;;
63398;SDS011;49533;-34.520;150.798;2022-12-26T14:49:17;5.55;;;2.65;;
63398;SDS011;49533;-34.520;150.798;2022-12-26T14:55:02;6.10;;;3.17;;
63398;SDS011;49533;-34.520;150.798;2022-12-26T15:00:52;6.93;;;2.50;;
63398;SDS011;49533;-34.520;150.798;2022-12-26T15:03:28;6.00;;;2.70;;
63398;SDS011;49533;-34.520;150.798;2022-12-26T15:06:23;7.97;;;2.72;;
63398;SDS011;49533;-34.520;150.798;2022-12-26T15:09:14;4.82;;;2.28;;
63398;SDS011;49533;-34.520;150.798;2022-12-26T15:21:11;5.90;;;2.95;;
63398;SDS011;49533;-34.520;150.798;2022-12-26T15:30:08;4.30;;;2.03;;
63398;SDS011;49533;-34.520;150.798;2022-12-26T15:32:49;4.00;;;2.33;;
63398;SDS011;49533;-34.520;150.798;2022-12-26T15:35:30;7.28;;;2.70;;
63398;SDS011;49533;-34.520;150.798;2022-12-26T15:41:09;4.70;;;2.50;;
63398;SDS011;49533;-34.520;150.798;2022-12-26T15:43:47;5.05;;;2.72;;
63398;SDS011;49533;-34.520;150.798;2022-12-26T15:46:28;3.88;;;2.50;;
63398;SDS011;49533;-34.520;150.798;2022-12-26T15:52:00;5.00;;;2.10;;
63398;SDS011;49533;-34.520;150.798;2022-12-26T15:54:45;3.05;;;2.35;;
63398;SDS011;49533;-34.520;150.798;2022-12-26T16:00:36;6.05;;;2.50;;
63398;SDS011;49533;-34.520;150.798;2022-12-26T16:03:58;4.65;;;2.38;;
63398;SDS011;49533;-34.520;150.798;2022-12-26T16:06:45;4.63;;;2.10;;
63398;SDS011;49533;-34.520;150.798;2022-12-26T16:09:33;7.13;;;2.42;;
63398;SDS011;49533;-34.520;150.798;2022-12-26T16:12:19;3.83;;;2.03;;
63398;SDS011;49533;-34.520;150.798;2022-12-26T16:17:40;4.88;;;2.20;;